createdAt,value
2023-04-01T00:00:41.056Z,7.784
2023-04-01T00:02:40.804Z,7.835
2023-04-01T00:03:41.090Z,7.747
2023-04-01T00:05:40.492Z,7.699
2023-04-01T00:06:40.690Z,7.814
2023-04-01T00:07:40.909Z,7.939
2023-04-01T00:08:40.087Z,8.022
2023-04-01T00:09:40.256Z,8.025
2023-04-01T00:10:40.500Z,8.049
2023-04-01T00:11:40.820Z,8.118
2023-04-01T00:12:41.068Z,8.140
2023-04-01T00:13:40.258Z,8.113
2023-04-01T00:14:40.440Z,8.260
2023-04-01T00:15:40.698Z,8.332
2023-04-01T00:16:40.449Z,8.476
2023-04-01T00:17:41.052Z,8.359
2023-04-01T00:19:40.681Z,8.278
2023-04-01T00:20:40.988Z,8.308
2023-04-01T00:21:40.163Z,8.404
2023-04-01T00:22:40.303Z,8.348
2023-04-01T00:23:40.480Z,8.345
2023-04-01T00:24:40.907Z,8.324
2023-04-01T00:25:41.147Z,8.351
2023-04-01T00:27:40.491Z,8.404
2023-04-01T00:28:40.643Z,8.407
2023-04-01T00:29:40.816Z,8.393
2023-04-01T00:30:41.032Z,8.433
2023-04-01T00:32:40.875Z,8.529
2023-04-01T00:33:40.522Z,8.551
2023-04-01T00:34:40.691Z,8.532
2023-04-01T00:35:41.057Z,8.588
2023-04-01T00:36:40.317Z,8.716
2023-04-01T00:37:40.705Z,8.812
2023-04-01T00:38:40.952Z,8.834
2023-04-01T00:39:40.174Z,8.796
2023-04-01T00:40:40.463Z,8.804
2023-04-01T00:41:40.653Z,8.906
2023-04-01T00:42:40.825Z,9.042
2023-04-01T00:43:40.157Z,8.991
2023-04-01T00:44:40.375Z,9.050
2023-04-01T00:45:40.686Z,9.023
2023-04-01T00:46:40.978Z,8.930
2023-04-01T00:47:40.468Z,9.045
2023-04-01T00:48:40.980Z,9.031
2023-04-01T00:49:40.187Z,9.018
2023-04-01T00:50:40.683Z,9.031
2023-04-01T00:51:40.887Z,9.010
2023-04-01T00:52:40.998Z,8.989
2023-04-01T00:53:40.134Z,9.031
2023-04-01T00:54:40.295Z,9.104
2023-04-01T00:55:40.480Z,9.069
2023-04-01T00:56:40.757Z,9.096
2023-04-01T00:57:40.991Z,9.085
2023-04-01T00:58:40.221Z,9.176
2023-04-01T00:59:40.481Z,9.176
2023-04-01T01:00:40.790Z,9.162
2023-04-01T01:02:40.828Z,9.197
2023-04-01T01:03:40.271Z,9.317
2023-04-01T01:04:40.432Z,9.237
2023-04-01T01:05:48.640Z,9.184
2023-04-01T01:07:40.755Z,9.242
2023-04-01T01:08:40.984Z,9.197
2023-04-01T01:09:41.119Z,9.093
2023-04-01T01:10:40.375Z,9.112
2023-04-01T01:11:43.352Z,9.112
2023-04-01T01:12:41.052Z,9.181
2023-04-01T01:13:40.472Z,9.197
2023-04-01T01:14:40.618Z,9.253
2023-04-01T01:15:40.836Z,9.282
2023-04-01T01:16:41.095Z,9.240
2023-04-01T01:17:41.023Z,9.176
2023-04-01T01:19:40.965Z,9.224
2023-04-01T01:20:44.203Z,9.189
2023-04-01T01:21:40.419Z,9.232
2023-04-01T01:22:40.529Z,9.277
2023-04-01T01:23:40.800Z,9.237
2023-04-01T01:24:41.068Z,9.205
2023-04-01T01:26:40.442Z,9.208
2023-04-01T01:27:40.668Z,9.205
2023-04-01T01:28:40.979Z,9.165
2023-04-01T01:29:40.166Z,9.184
2023-04-01T01:30:40.446Z,9.197
2023-04-01T01:31:40.866Z,9.170
2023-04-01T01:32:41.301Z,9.154
2023-04-01T01:33:41.861Z,9.186
2023-04-01T01:34:41.502Z,9.216
2023-04-01T01:37:40.209Z,9.154
2023-04-01T01:38:40.530Z,9.202
2023-04-01T01:39:40.805Z,9.186
2023-04-01T01:40:41.100Z,9.178
2023-04-01T01:42:40.550Z,9.186
2023-04-01T01:43:40.815Z,9.157
2023-04-01T01:44:41.028Z,9.205
2023-04-01T01:45:40.343Z,9.146
2023-04-01T01:46:40.765Z,9.128
2023-04-01T01:47:41.138Z,9.173
2023-04-01T01:48:40.740Z,9.106
2023-04-01T01:49:40.873Z,9.104
2023-04-01T01:50:40.178Z,9.085
2023-04-01T01:51:40.584Z,9.144
2023-04-01T01:52:40.731Z,9.160
2023-04-01T01:53:40.939Z,9.165
2023-04-01T01:54:41.130Z,9.162
2023-04-01T01:55:40.380Z,9.170
2023-04-01T01:56:40.549Z,9.149
2023-04-01T01:57:40.864Z,9.186
2023-04-01T01:58:41.090Z,9.213
2023-04-01T01:59:40.321Z,9.122
2023-04-01T02:00:40.593Z,9.098
2023-04-01T02:01:40.945Z,9.114
2023-04-01T02:02:40.852Z,9.069
2023-04-01T02:03:41.112Z,8.981
2023-04-01T02:05:40.925Z,8.975
2023-04-01T02:06:41.060Z,9.010
2023-04-01T02:07:40.277Z,9.034
2023-04-01T02:08:40.479Z,8.957
2023-04-01T02:09:40.672Z,8.954
2023-04-01T02:10:40.873Z,8.973
2023-04-01T02:11:41.163Z,8.967
2023-04-01T02:12:40.504Z,9.074
2023-04-01T02:13:40.728Z,9.112
2023-04-01T02:14:40.964Z,9.071
2023-04-01T02:15:40.169Z,9.079
2023-04-01T02:16:40.554Z,9.047
2023-04-01T02:17:40.834Z,9.021
2023-04-01T02:18:40.529Z,9.037
2023-04-01T02:19:40.816Z,9.037
2023-04-01T02:20:41.079Z,9.114
2023-04-01T02:22:40.541Z,9.063
2023-04-01T02:23:40.994Z,9.023
2023-04-01T02:24:40.320Z,8.991
2023-04-01T02:25:40.583Z,9.066
2023-04-01T02:26:40.980Z,9.047
2023-04-01T02:27:40.354Z,9.045
2023-04-01T02:28:40.725Z,9.021
2023-04-01T02:29:40.947Z,9.050
2023-04-01T02:31:40.511Z,9.069
2023-04-01T02:32:40.860Z,9.015
2023-04-01T02:33:40.312Z,9.138
2023-04-01T02:34:40.587Z,9.184
2023-04-01T02:35:40.893Z,9.181
2023-04-01T02:36:40.491Z,9.160
2023-04-01T02:37:40.789Z,9.122
2023-04-01T02:38:41.060Z,9.090
2023-04-01T02:39:40.230Z,9.154
2023-04-01T02:40:40.466Z,9.146
2023-04-01T02:41:40.817Z,9.136
2023-04-01T02:42:40.992Z,9.133
2023-04-01T02:44:40.472Z,9.216
2023-04-01T02:45:41.120Z,9.221
2023-04-01T02:46:40.377Z,9.192
2023-04-01T02:47:40.908Z,9.136
2023-04-01T02:49:40.735Z,9.125
2023-04-01T02:50:41.120Z,9.154
2023-04-01T02:51:40.440Z,9.176
2023-04-01T02:52:40.795Z,9.112
2023-04-01T02:53:41.115Z,9.122
2023-04-01T02:54:40.421Z,9.114
2023-04-01T02:55:40.954Z,9.133
2023-04-01T02:56:40.319Z,9.106
2023-04-01T02:57:40.806Z,9.112
2023-04-01T02:58:41.296Z,9.149
2023-04-01T02:59:40.536Z,9.170
2023-04-01T03:00:40.849Z,9.194
2023-04-01T03:02:40.888Z,9.144
2023-04-01T03:03:41.120Z,9.130
2023-04-01T03:04:40.408Z,9.114
2023-04-01T03:05:40.814Z,9.173
2023-04-01T03:06:40.992Z,9.106
2023-04-01T03:07:40.184Z,9.104
2023-04-01T03:08:40.420Z,9.026
2023-04-01T03:09:40.693Z,9.045
2023-04-01T03:10:40.970Z,9.047
2023-04-01T03:11:40.751Z,9.037
2023-04-01T03:12:40.991Z,9.031
2023-04-01T03:13:40.290Z,8.989
2023-04-01T03:14:40.591Z,9.023
2023-04-01T03:17:40.601Z,9.010
2023-04-01T03:18:40.963Z,9.005
2023-04-01T03:19:40.391Z,9.037
2023-04-01T03:20:40.654Z,9.071
2023-04-01T03:21:40.855Z,9.023
2023-04-01T03:22:42.953Z,9.112
2023-04-01T03:23:40.536Z,9.050
2023-04-01T03:24:40.877Z,9.029
2023-04-01T03:25:41.156Z,9.104
2023-04-01T03:26:40.403Z,9.047
2023-04-01T03:27:40.640Z,9.055
2023-04-01T03:28:41.017Z,9.079
2023-04-01T03:29:40.304Z,9.039
2023-04-01T03:30:40.862Z,9.085
2023-04-01T03:31:41.292Z,9.063
2023-04-01T03:33:41.060Z,9.101
2023-04-01T03:34:40.348Z,9.136
2023-04-01T03:35:40.611Z,9.101
2023-04-01T03:36:41.005Z,9.042
2023-04-01T03:38:40.448Z,8.989
2023-04-01T03:39:41.405Z,9.010
2023-04-01T03:40:40.411Z,8.991
2023-04-01T03:41:40.578Z,8.981
2023-04-01T03:42:40.825Z,8.989
2023-04-01T03:43:40.399Z,8.997
2023-04-01T03:44:40.631Z,9.023
2023-04-01T03:45:41.284Z,9.066
2023-04-01T03:46:40.491Z,9.010
2023-04-01T03:47:40.822Z,8.975
2023-04-01T03:49:40.611Z,8.954
2023-04-01T03:50:40.808Z,8.951
2023-04-01T03:51:41.118Z,8.983
2023-04-01T03:52:40.345Z,8.935
2023-04-01T03:53:40.556Z,8.930
2023-04-01T03:54:40.710Z,8.954
2023-04-01T03:56:40.732Z,8.946
2023-04-01T03:57:41.071Z,8.887
2023-04-01T03:58:40.315Z,8.898
2023-04-01T03:59:40.595Z,8.855
2023-04-01T04:00:40.801Z,8.901
2023-04-01T04:01:40.984Z,8.911
2023-04-01T04:02:40.290Z,8.951
2023-04-01T04:05:40.173Z,8.901
2023-04-01T04:06:40.354Z,8.898
2023-04-01T04:07:40.547Z,8.927
2023-04-01T04:08:40.840Z,8.898
2023-04-01T04:09:41.055Z,8.826
2023-04-01T04:11:40.587Z,8.834
2023-04-01T04:12:40.963Z,8.823
2023-04-01T04:13:40.445Z,8.834
2023-04-01T04:14:40.774Z,8.874
2023-04-01T04:15:40.983Z,8.898
2023-04-01T04:16:40.279Z,8.861
2023-04-01T04:17:40.602Z,8.871
2023-04-01T04:18:41.120Z,8.839
2023-04-01T04:19:40.272Z,8.855
2023-04-01T04:20:40.428Z,8.927
2023-04-01T04:21:40.606Z,8.885
2023-04-01T04:22:40.810Z,8.893
2023-04-01T04:23:41.070Z,8.874
2023-04-01T04:24:40.244Z,8.863
2023-04-01T04:25:40.565Z,8.836
2023-04-01T04:26:40.828Z,8.845
2023-04-01T04:27:41.004Z,8.826
2023-04-01T04:28:40.172Z,8.845
2023-04-01T04:29:40.444Z,8.804
2023-04-01T04:30:40.688Z,8.823
2023-04-01T04:31:41.021Z,8.802
2023-04-01T04:32:40.649Z,8.823
2023-04-01T04:33:40.965Z,8.834
2023-04-01T04:35:40.463Z,8.807
2023-04-01T04:36:40.859Z,8.807
2023-04-01T04:37:41.039Z,8.775
2023-04-01T04:38:40.238Z,8.748
2023-04-01T04:39:40.349Z,8.695
2023-04-01T04:40:40.546Z,8.676
2023-04-01T04:41:40.915Z,8.698
2023-04-01T04:42:41.088Z,8.690
2023-04-01T04:43:40.220Z,8.644
2023-04-01T04:44:40.543Z,8.666
2023-04-01T04:45:40.735Z,8.639
2023-04-01T04:46:40.968Z,8.610
2023-04-01T04:47:41.177Z,8.634
2023-04-01T04:48:40.489Z,8.583
2023-04-01T04:49:40.649Z,8.559
2023-04-01T04:50:40.882Z,8.588
2023-04-01T04:52:40.424Z,8.519
2023-04-01T04:53:40.665Z,8.487
2023-04-01T04:54:40.945Z,8.543
2023-04-01T04:55:40.187Z,8.471
2023-04-01T04:56:40.299Z,8.439
2023-04-01T04:57:40.788Z,8.380
2023-04-01T04:58:40.990Z,8.380
2023-04-01T04:59:40.293Z,8.396
2023-04-01T05:00:40.628Z,8.420
2023-04-01T05:01:41.164Z,8.393
2023-04-01T05:02:40.852Z,8.407
2023-04-01T05:03:40.945Z,8.431
2023-04-01T05:04:40.150Z,8.361
2023-04-01T05:05:40.328Z,8.351
2023-04-01T05:06:40.996Z,8.428
2023-04-01T05:09:40.525Z,8.361
2023-04-01T05:10:40.692Z,8.391
2023-04-01T05:11:40.927Z,8.364
2023-04-01T05:12:41.060Z,8.423
2023-04-01T05:14:40.608Z,8.340
2023-04-01T05:15:40.808Z,8.396
2023-04-01T05:16:41.175Z,8.401
2023-04-01T05:17:40.796Z,8.412
2023-04-01T05:19:40.453Z,8.380
2023-04-01T05:20:40.734Z,8.351
2023-04-01T05:21:40.952Z,8.388
2023-04-01T05:22:41.140Z,8.353
2023-04-01T05:23:40.405Z,8.345
2023-04-01T05:24:40.633Z,8.329
2023-04-01T05:25:40.894Z,8.436
2023-04-01T05:26:41.164Z,8.380
2023-04-01T05:27:40.573Z,8.356
2023-04-01T05:28:40.804Z,8.332
2023-04-01T05:29:41.032Z,8.409
2023-04-01T05:30:40.199Z,8.364
2023-04-01T05:31:40.492Z,8.391
2023-04-01T05:32:40.759Z,8.401
2023-04-01T05:33:40.257Z,8.444
2023-04-01T05:34:40.464Z,8.388
2023-04-01T05:35:40.854Z,8.412
2023-04-01T05:36:40.448Z,8.407
2023-04-01T05:37:40.788Z,8.417
2023-04-01T05:38:41.023Z,8.417
2023-04-01T05:39:40.164Z,8.417
2023-04-01T05:40:40.368Z,8.436
2023-04-01T05:41:40.640Z,8.431
2023-04-01T05:42:40.799Z,8.396
2023-04-01T05:43:40.979Z,8.420
2023-04-01T05:45:40.332Z,8.409
2023-04-01T05:46:40.718Z,8.455
2023-04-01T05:47:40.283Z,8.431
2023-04-01T05:48:40.693Z,8.449
2023-04-01T05:49:40.955Z,8.436
2023-04-01T05:50:40.217Z,8.449
2023-04-01T05:51:40.387Z,8.444
2023-04-01T05:52:40.775Z,8.428
2023-04-01T05:53:41.007Z,8.449
2023-04-01T05:54:40.151Z,8.473
2023-04-01T05:55:40.350Z,8.455
2023-04-01T05:56:40.605Z,8.465
2023-04-01T05:57:41.094Z,8.529
2023-04-01T05:58:40.299Z,8.551
2023-04-01T05:59:40.614Z,8.556
2023-04-01T06:00:40.908Z,8.569
2023-04-01T06:02:43.839Z,8.618
2023-04-01T06:03:43.777Z,8.588
2023-04-01T06:04:44.019Z,8.612
2023-04-01T06:06:43.383Z,8.644
2023-04-01T06:07:43.748Z,8.631
2023-04-01T06:08:43.956Z,8.644
2023-04-01T06:09:43.133Z,8.626
2023-04-01T06:10:43.317Z,8.671
2023-04-01T06:11:43.548Z,8.695
2023-04-01T06:12:43.802Z,8.754
2023-04-01T06:13:43.962Z,8.759
2023-04-01T06:14:43.159Z,8.738
2023-04-01T06:15:43.501Z,8.740
2023-04-01T06:16:43.924Z,8.839
2023-04-01T06:17:44.880Z,8.823
2023-04-01T06:18:43.974Z,8.823
2023-04-01T06:19:44.181Z,8.812
2023-04-01T06:21:43.615Z,8.933
2023-04-01T06:22:43.797Z,8.986
2023-04-01T06:23:44.013Z,8.925
2023-04-01T06:25:43.307Z,8.970
2023-04-01T06:26:43.600Z,9.007
2023-04-01T06:27:43.806Z,9.047
2023-04-01T06:28:44.064Z,9.066
2023-04-01T06:29:43.229Z,9.160
2023-04-01T06:30:43.390Z,9.162
2023-04-01T06:31:43.826Z,9.186
2023-04-01T06:32:43.328Z,9.224
2023-04-01T06:33:43.861Z,9.395
2023-04-01T06:34:44.088Z,9.459
2023-04-01T06:35:43.372Z,9.429
2023-04-01T06:36:44.074Z,9.325
2023-04-01T06:38:43.470Z,9.368
2023-04-01T06:39:43.727Z,9.421
2023-04-01T06:40:44.010Z,9.325
2023-04-01T06:42:43.304Z,9.339
2023-04-01T06:43:43.442Z,9.347
2023-04-01T06:44:43.611Z,9.328
2023-04-01T06:45:44.048Z,9.381
2023-04-01T06:46:43.372Z,9.392
2023-04-01T06:47:45.400Z,9.427
2023-04-01T06:48:43.999Z,9.504
2023-04-01T06:49:44.076Z,9.480
2023-04-01T06:50:43.164Z,9.541
2023-04-01T06:51:43.293Z,9.517
2023-04-01T06:52:43.503Z,9.565
2023-04-01T06:53:43.747Z,9.485
2023-04-01T06:54:43.217Z,9.443
2023-04-01T06:55:43.395Z,9.579
2023-04-01T06:56:43.644Z,9.416
2023-04-01T06:57:44.190Z,9.480
2023-04-01T06:58:43.319Z,9.480
2023-04-01T06:59:43.576Z,9.464
2023-04-01T07:00:43.867Z,9.667
2023-04-01T07:02:43.590Z,9.691
2023-04-01T07:03:43.805Z,9.619
2023-04-01T07:04:44.199Z,9.798
2023-04-01T07:07:43.848Z,9.747
2023-04-01T07:08:44.095Z,9.771
2023-04-01T07:09:43.619Z,9.768
2023-04-01T07:10:43.932Z,9.947
2023-04-01T07:11:43.125Z,9.875
2023-04-01T07:12:43.536Z,9.747
2023-04-01T07:13:43.789Z,9.859
2023-04-01T07:14:44.044Z,9.784
2023-04-01T07:15:43.285Z,9.985
2023-04-01T07:16:43.551Z,9.961
2023-04-01T07:18:43.646Z,9.923
2023-04-01T07:19:43.925Z,10.057
2023-04-01T07:20:43.500Z,10.105
2023-04-01T07:21:43.751Z,10.076
2023-04-01T07:23:43.511Z,10.110
2023-04-01T07:24:43.915Z,10.204
2023-04-01T07:25:44.096Z,10.214
2023-04-01T07:27:43.316Z,10.169
2023-04-01T07:28:43.512Z,10.225
2023-04-01T07:29:43.721Z,10.201
2023-04-01T07:30:43.948Z,10.278
2023-04-01T07:32:43.473Z,10.452
2023-04-01T07:33:43.881Z,10.495
2023-04-01T07:35:43.525Z,10.524
2023-04-01T07:36:43.968Z,10.607
2023-04-01T07:37:44.165Z,10.415
2023-04-01T07:38:43.492Z,10.297
2023-04-01T07:39:44.012Z,10.436
2023-04-01T07:40:43.146Z,10.463
2023-04-01T07:41:43.507Z,10.348
2023-04-01T07:42:43.659Z,10.444
2023-04-01T07:43:43.941Z,10.383
2023-04-01T07:44:44.071Z,10.417
2023-04-01T07:45:43.229Z,10.487
2023-04-01T07:46:43.835Z,10.439
2023-04-01T07:48:44.007Z,10.567
2023-04-01T07:49:43.171Z,10.399
2023-04-01T07:50:43.325Z,10.423
2023-04-01T07:51:43.663Z,10.388
2023-04-01T07:52:43.747Z,10.308
2023-04-01T07:53:43.951Z,10.303
2023-04-01T07:54:44.132Z,10.228
2023-04-01T07:55:43.298Z,10.343
2023-04-01T07:56:46.428Z,10.313
2023-04-01T07:58:44.036Z,10.473
2023-04-01T07:59:43.251Z,10.425
2023-04-01T08:00:43.447Z,10.238
2023-04-01T08:01:43.661Z,10.380
2023-04-01T08:02:44.086Z,10.492
2023-04-01T08:03:44.196Z,10.543
2023-04-01T08:04:43.381Z,10.546
2023-04-01T08:05:45.211Z,10.476
2023-04-01T08:06:43.986Z,10.562
2023-04-01T08:07:43.164Z,10.313
2023-04-01T08:08:43.267Z,10.567
2023-04-01T08:09:43.389Z,10.591
2023-04-01T08:10:43.603Z,10.524
2023-04-01T08:11:43.980Z,10.452
2023-04-01T08:12:43.136Z,10.516
2023-04-01T08:13:43.317Z,10.452
2023-04-01T08:14:43.562Z,10.580
2023-04-01T08:15:43.776Z,10.690
2023-04-01T08:16:44.145Z,10.698
2023-04-01T08:17:43.306Z,10.543
2023-04-01T08:18:43.796Z,10.527
2023-04-01T08:19:43.979Z,10.554
2023-04-01T08:20:43.143Z,10.473
2023-04-01T08:21:43.276Z,10.519
2023-04-01T08:22:43.449Z,10.519
2023-04-01T08:23:43.641Z,10.313
2023-04-01T08:24:48.737Z,10.311
2023-04-01T08:26:43.305Z,10.268
2023-04-01T08:27:43.517Z,10.276
2023-04-01T08:28:43.808Z,10.316
2023-04-01T08:29:44.044Z,10.201
2023-04-01T08:30:43.207Z,10.246
2023-04-01T08:31:43.514Z,10.361
2023-04-01T08:32:44.196Z,10.335
2023-04-01T08:33:43.738Z,10.340
2023-04-01T08:34:43.936Z,10.254
2023-04-01T08:36:43.764Z,10.313
2023-04-01T08:37:43.923Z,10.313
2023-04-01T08:38:44.119Z,10.260
2023-04-01T08:39:43.260Z,10.292
2023-04-01T08:40:43.379Z,10.228
2023-04-01T08:41:43.627Z,10.161
2023-04-01T08:42:43.840Z,10.316
2023-04-01T08:43:43.980Z,10.324
2023-04-01T08:44:43.182Z,10.316
2023-04-01T08:45:43.707Z,10.225
2023-04-01T08:46:44.130Z,10.241
2023-04-01T08:47:43.369Z,10.345
2023-04-01T08:48:43.887Z,10.337
2023-04-01T08:49:44.036Z,10.281
2023-04-01T08:50:43.159Z,10.327
2023-04-01T08:51:43.362Z,10.377
2023-04-01T08:52:43.537Z,10.404
2023-04-01T08:53:43.657Z,10.473
2023-04-01T08:54:43.840Z,10.409
2023-04-01T08:55:44.080Z,10.503
2023-04-01T08:58:43.709Z,10.452
2023-04-01T08:59:44.724Z,10.521
2023-04-01T09:01:43.297Z,10.668
2023-04-01T09:02:43.765Z,10.642
2023-04-01T09:03:44.325Z,10.570
2023-04-01T09:04:43.209Z,10.407
2023-04-01T09:05:43.332Z,10.471
2023-04-01T09:06:43.542Z,10.497
2023-04-01T09:07:43.783Z,10.554
2023-04-01T09:08:43.951Z,10.716
2023-04-01T09:10:43.287Z,10.706
2023-04-01T09:11:43.591Z,10.399
2023-04-01T09:12:44.043Z,10.388
2023-04-01T09:13:43.195Z,10.420
2023-04-01T09:14:43.375Z,10.447
2023-04-01T09:15:43.692Z,10.487
2023-04-01T09:16:43.182Z,10.399
2023-04-01T09:17:43.435Z,10.452
2023-04-01T09:18:43.794Z,10.521
2023-04-01T09:19:44.002Z,10.676
2023-04-01T09:21:43.349Z,10.529
2023-04-01T09:22:43.668Z,10.556
2023-04-01T09:23:43.840Z,10.554
2023-04-01T09:24:44.038Z,10.551
2023-04-01T09:25:43.317Z,10.428
2023-04-01T09:26:43.432Z,10.423
2023-04-01T09:28:43.372Z,10.476
2023-04-01T09:29:43.680Z,10.367
2023-04-01T09:30:43.936Z,10.492
2023-04-01T09:31:43.124Z,10.489
2023-04-01T09:32:43.321Z,10.489
2023-04-01T09:33:43.775Z,10.297
2023-04-01T09:34:44.020Z,10.222
2023-04-01T09:36:43.505Z,10.367
2023-04-01T09:37:43.587Z,10.415
2023-04-01T09:38:43.755Z,10.351
2023-04-01T09:39:43.931Z,10.404
2023-04-01T09:40:44.156Z,10.415
2023-04-01T09:41:43.356Z,10.316
2023-04-01T09:42:43.614Z,10.401
2023-04-01T09:43:43.793Z,10.425
2023-04-01T09:44:43.958Z,10.343
2023-04-01T09:45:43.156Z,10.417
2023-04-01T09:46:43.700Z,10.305
2023-04-01T09:47:44.146Z,10.313
2023-04-01T09:49:43.694Z,10.329
2023-04-01T09:50:43.860Z,10.220
2023-04-01T09:51:43.977Z,10.393
2023-04-01T09:52:45.313Z,10.351
2023-04-01T09:53:43.737Z,10.180
2023-04-01T09:54:43.880Z,10.062
2023-04-01T09:55:44.011Z,9.878
2023-04-01T09:57:43.460Z,9.699
2023-04-01T09:58:44.204Z,9.747
2023-04-01T09:59:43.460Z,9.667
2023-04-01T10:00:43.693Z,9.635
2023-04-01T10:01:43.940Z,9.584
2023-04-01T10:02:43.312Z,9.622
2023-04-01T10:03:43.884Z,9.646
2023-04-01T10:04:44.154Z,9.504
2023-04-01T10:05:43.474Z,9.472
2023-04-01T10:06:43.883Z,9.557
2023-04-01T10:07:44.076Z,9.528
2023-04-01T10:08:43.230Z,9.429
2023-04-01T10:09:43.346Z,9.533
2023-04-01T10:10:43.578Z,9.472
2023-04-01T10:11:43.735Z,9.432
2023-04-01T10:12:43.976Z,9.379
2023-04-01T10:13:43.152Z,9.453
2023-04-01T10:14:43.447Z,9.416
2023-04-01T10:15:43.623Z,9.397
2023-04-01T10:16:44.058Z,9.400
2023-04-01T10:17:43.381Z,9.357
2023-04-01T10:18:43.807Z,9.347
2023-04-01T10:19:43.945Z,9.389
2023-04-01T10:20:43.245Z,9.565
2023-04-01T10:21:43.459Z,9.557
2023-04-01T10:22:43.688Z,9.584
2023-04-01T10:23:43.918Z,9.582
2023-04-01T10:24:44.122Z,9.488
2023-04-01T10:25:43.782Z,9.525
2023-04-01T10:26:43.949Z,9.595
2023-04-01T10:27:44.098Z,9.565
2023-04-01T10:28:43.407Z,9.435
2023-04-01T10:29:43.724Z,9.475
2023-04-01T10:30:43.955Z,9.632
2023-04-01T10:31:44.223Z,9.715
2023-04-01T10:33:44.071Z,9.913
2023-04-01T10:34:43.227Z,9.875
2023-04-01T10:35:43.413Z,9.910
2023-04-01T10:36:43.868Z,9.907
2023-04-01T10:37:44.036Z,9.843
2023-04-01T10:38:43.208Z,9.833
2023-04-01T10:39:43.653Z,9.913
2023-04-01T10:40:43.813Z,9.485
2023-04-01T10:41:44.078Z,9.584
2023-04-01T10:42:43.255Z,9.403
2023-04-01T10:43:43.464Z,9.416
2023-04-01T10:44:43.728Z,9.461
2023-04-01T10:45:44.038Z,9.541
2023-04-01T10:46:43.617Z,9.339
2023-04-01T10:47:44.041Z,9.448
2023-04-01T10:48:43.572Z,9.493
2023-04-01T10:49:44.338Z,9.400
2023-04-01T10:51:43.869Z,9.395
2023-04-01T10:52:44.053Z,9.293
2023-04-01T10:53:43.388Z,9.357
2023-04-01T10:54:43.689Z,9.411
2023-04-01T10:55:43.897Z,9.306
2023-04-01T10:56:43.100Z,9.154
2023-04-01T10:57:43.512Z,9.058
2023-04-01T10:58:43.863Z,9.112
2023-04-01T10:59:44.065Z,9.266
2023-04-01T11:00:43.291Z,9.325
2023-04-01T11:01:43.722Z,9.130
2023-04-01T11:02:44.314Z,9.264
2023-04-01T11:03:43.990Z,9.234
2023-04-01T11:04:43.632Z,9.355
2023-04-01T11:05:43.807Z,9.274
2023-04-01T11:06:43.965Z,9.339
2023-04-01T11:08:43.611Z,9.392
2023-04-01T11:09:43.676Z,9.357
2023-04-01T11:10:43.879Z,9.328
2023-04-01T11:11:44.151Z,9.240
2023-04-01T11:12:43.345Z,9.368
2023-04-01T11:13:43.661Z,9.266
2023-04-01T11:14:43.935Z,9.363
2023-04-01T11:15:43.287Z,9.232
2023-04-01T11:16:44.004Z,9.293
2023-04-01T11:17:43.450Z,9.245
2023-04-01T11:18:43.760Z,9.261
2023-04-01T11:19:44.025Z,9.202
2023-04-01T11:20:43.185Z,9.112
2023-04-01T11:21:44.251Z,9.216
2023-04-01T11:23:45.491Z,9.213
2023-04-01T11:25:43.686Z,9.306
2023-04-01T11:26:43.954Z,9.269
2023-04-01T11:27:43.360Z,9.266
2023-04-01T11:28:43.551Z,9.205
2023-04-01T11:29:49.928Z,9.170
2023-04-01T11:30:43.691Z,9.226
2023-04-01T11:31:43.975Z,9.304
2023-04-01T11:33:43.759Z,9.341
2023-04-01T11:34:43.927Z,9.395
2023-04-01T11:35:44.144Z,9.408
2023-04-01T11:36:43.388Z,9.432
2023-04-01T11:37:43.775Z,9.496
2023-04-01T11:38:43.939Z,9.517
2023-04-01T11:39:44.146Z,9.437
2023-04-01T11:41:43.478Z,9.563
2023-04-01T11:42:43.749Z,9.472
2023-04-01T11:43:48.847Z,9.555
2023-04-01T11:45:44.151Z,9.504
2023-04-01T11:46:43.461Z,9.531
2023-04-01T11:47:43.959Z,9.512
2023-04-01T11:48:44.984Z,9.488
2023-04-01T11:49:44.536Z,9.416
2023-04-01T11:50:43.782Z,9.408
2023-04-01T11:51:44.037Z,9.363
2023-04-01T11:52:43.255Z,9.314
2023-04-01T11:53:43.628Z,9.405
2023-04-01T11:54:43.812Z,9.395
2023-04-01T11:55:44.047Z,9.403
2023-04-01T11:56:43.271Z,9.379
2023-04-01T11:57:43.758Z,9.282
2023-04-01T11:58:43.978Z,9.240
2023-04-01T11:59:43.531Z,9.229
2023-04-01T12:00:43.700Z,9.213
2023-04-01T12:01:43.954Z,9.216
2023-04-01T12:02:43.380Z,9.162
2023-04-01T12:03:43.469Z,9.272
2023-04-01T12:04:43.698Z,9.285
2023-04-01T12:05:43.118Z,9.328
2023-04-01T12:06:43.263Z,9.306
2023-04-01T12:07:44.775Z,9.314
2023-04-01T12:08:43.561Z,9.349
2023-04-01T12:09:43.775Z,9.357
2023-04-01T12:10:43.904Z,9.429
2023-04-01T12:11:43.140Z,9.395
2023-04-01T12:12:50.880Z,9.416
2023-04-01T12:13:43.469Z,9.512
2023-04-01T12:14:43.604Z,9.646
2023-04-01T12:15:43.789Z,9.659
2023-04-01T12:16:44.251Z,9.443
2023-04-01T12:17:43.624Z,9.496
2023-04-01T12:18:44.188Z,9.582
2023-04-01T12:19:43.372Z,9.592
2023-04-01T12:20:43.690Z,9.539
2023-04-01T12:21:43.925Z,9.547
2023-04-01T12:23:43.297Z,9.389
2023-04-01T12:24:43.465Z,9.440
2023-04-01T12:25:43.659Z,9.435
2023-04-01T12:26:43.841Z,9.493
2023-04-01T12:27:44.080Z,9.475
2023-04-01T12:28:43.335Z,9.456
2023-04-01T12:29:43.532Z,9.480
2023-04-01T12:30:43.660Z,9.472
2023-04-01T12:31:44.006Z,9.491
2023-04-01T12:32:43.481Z,9.437
2023-04-01T12:33:43.919Z,9.432
2023-04-01T12:34:44.124Z,9.528
2023-04-01T12:35:43.246Z,9.472
2023-04-01T12:36:43.539Z,9.517
2023-04-01T12:37:43.663Z,9.448
2023-04-01T12:38:44.002Z,9.469
2023-04-01T12:39:43.111Z,9.496
2023-04-01T12:40:43.361Z,9.453
2023-04-01T12:41:43.671Z,9.451
2023-04-01T12:42:43.895Z,9.376
2023-04-01T12:43:44.112Z,9.288
2023-04-01T12:44:43.351Z,9.317
2023-04-01T12:45:43.564Z,9.333
2023-04-01T12:46:44.211Z,9.280
2023-04-01T12:47:43.521Z,9.293
2023-04-01T12:48:43.825Z,9.365
2023-04-01T12:49:44.064Z,9.325
2023-04-01T12:50:43.240Z,9.355
2023-04-01T12:51:43.436Z,9.314
2023-04-01T12:52:43.605Z,9.272
2023-04-01T12:53:43.731Z,9.288
2023-04-01T12:54:43.860Z,9.282
2023-04-01T12:55:43.614Z,9.306
2023-04-01T12:56:44.030Z,9.336
2023-04-01T12:57:43.395Z,9.341
2023-04-01T12:58:43.618Z,9.395
2023-04-01T12:59:43.919Z,9.341
2023-04-01T13:00:44.987Z,9.427
2023-04-01T13:01:43.610Z,9.419
2023-04-01T13:02:43.873Z,9.440
2023-04-01T13:03:43.298Z,9.453
2023-04-01T13:04:43.958Z,9.445
2023-04-01T13:06:43.537Z,9.440
2023-04-01T13:07:43.965Z,9.427
2023-04-01T13:08:43.057Z,9.429
2023-04-01T13:09:43.253Z,9.443
2023-04-01T13:10:43.834Z,9.381
2023-04-01T13:11:44.020Z,9.400
2023-04-01T13:12:43.297Z,9.421
2023-04-01T13:13:43.793Z,9.325
2023-04-01T13:14:48.888Z,9.282
2023-04-01T13:16:44.112Z,9.245
2023-04-01T13:17:43.262Z,9.331
2023-04-01T13:18:43.620Z,9.331
2023-04-01T13:19:46.505Z,9.341
2023-04-01T13:20:43.920Z,9.309
2023-04-01T13:21:44.008Z,9.397
2023-04-01T13:22:43.251Z,9.328
2023-04-01T13:23:43.448Z,9.411
2023-04-01T13:24:43.577Z,9.312
2023-04-01T13:25:43.761Z,9.381
2023-04-01T13:27:44.660Z,9.306
2023-04-01T13:28:44.792Z,9.277
2023-04-01T13:29:44.972Z,9.253
2023-04-01T13:30:44.218Z,9.250
2023-04-01T13:31:44.608Z,9.221
2023-04-01T13:32:49.905Z,9.213
2023-04-01T13:33:44.276Z,9.165
2023-04-01T13:34:44.362Z,9.149
2023-04-01T13:35:44.528Z,9.224
2023-04-01T13:36:44.935Z,9.269
2023-04-01T13:37:45.125Z,9.245
2023-04-01T13:38:44.317Z,9.229
2023-04-01T13:39:44.425Z,9.250
2023-04-01T13:40:52.476Z,9.293
2023-04-01T13:42:46.334Z,9.339
2023-04-01T13:43:45.039Z,9.328
2023-04-01T13:44:44.202Z,9.421
2023-04-01T13:45:44.407Z,9.456
2023-04-01T13:46:44.835Z,9.435
2023-04-01T13:47:44.194Z,9.456
2023-04-01T13:48:44.769Z,9.469
2023-04-01T13:49:45.057Z,9.461
2023-04-01T13:50:44.288Z,9.363
2023-04-01T13:51:44.466Z,9.381
2023-04-01T13:52:44.707Z,9.363
2023-04-01T13:53:44.883Z,9.325
2023-04-01T13:54:44.207Z,9.379
2023-04-01T13:55:44.760Z,9.405
2023-04-01T13:56:45.269Z,9.381
2023-04-01T13:58:44.863Z,9.347
2023-04-01T13:59:45.008Z,9.373
2023-04-01T14:00:44.338Z,9.373
2023-04-01T14:01:45.230Z,9.368
2023-04-01T14:03:45.012Z,9.403
2023-04-01T14:05:49.780Z,9.355